createdAt,value
2018-06-15T00:00:12.659Z,24.38
2018-06-15T00:01:12.751Z,24.32
2018-06-15T00:02:12.728Z,24.29
2018-06-15T00:03:12.693Z,24.38
2018-06-15T00:04:12.703Z,24.28
2018-06-15T00:05:12.761Z,24.41
2018-06-15T00:06:12.713Z,24.37
2018-06-15T00:07:12.724Z,24.28
2018-06-15T00:08:12.696Z,24.37
2018-06-15T00:09:12.731Z,24.38
2018-06-15T00:10:12.688Z,24.34
2018-06-15T00:11:12.725Z,24.31
2018-06-15T00:12:12.712Z,24.28
2018-06-15T00:13:12.729Z,24.29
2018-06-15T00:14:12.751Z,24.29
2018-06-15T00:15:12.731Z,24.26
2018-06-15T00:16:12.732Z,24.31
2018-06-15T00:17:12.730Z,24.38
2018-06-15T00:18:12.726Z,24.26
2018-06-15T00:19:12.769Z,24.28
2018-06-15T00:20:12.779Z,24.28
2018-06-15T00:21:12.740Z,24.32
2018-06-15T00:22:12.715Z,24.28
2018-06-15T00:23:12.724Z,24.29
2018-06-15T00:24:15.707Z,24.18
2018-06-15T00:25:12.757Z,24.25
2018-06-15T00:26:12.747Z,24.29
2018-06-15T00:27:12.821Z,24.28
2018-06-15T00:28:12.797Z,24.36
2018-06-15T00:29:12.785Z,24.37
2018-06-15T00:30:12.772Z,24.25
2018-06-15T00:31:12.774Z,24.32
2018-06-15T00:32:12.780Z,24.28
2018-06-15T00:33:12.735Z,24.21
2018-06-15T00:34:12.777Z,24.24
2018-06-15T00:35:12.745Z,24.26
2018-06-15T00:36:12.781Z,24.34
2018-06-15T00:37:12.819Z,24.26
2018-06-15T00:38:12.815Z,24.31
2018-06-15T00:39:12.775Z,24.34
2018-06-15T00:40:12.840Z,24.24
2018-06-15T00:41:12.781Z,24.38
2018-06-15T00:42:12.789Z,24.25
2018-06-15T00:43:12.788Z,24.28
2018-06-15T00:44:12.780Z,24.34
2018-06-15T00:45:12.786Z,24.32
2018-06-15T00:46:12.796Z,24.28
2018-06-15T00:47:12.830Z,24.31
2018-06-15T00:48:12.805Z,24.28
2018-06-15T00:49:12.785Z,24.24
2018-06-15T00:50:12.849Z,24.26
2018-06-15T00:51:12.772Z,24.21
2018-06-15T00:52:12.816Z,24.22
2018-06-15T00:53:12.811Z,24.31
2018-06-15T00:54:12.829Z,24.24
2018-06-15T00:55:12.797Z,24.25
2018-06-15T00:56:12.810Z,24.29
2018-06-15T00:57:12.861Z,24.28
2018-06-15T00:58:12.824Z,24.28
2018-06-15T00:59:12.850Z,24.29
2018-06-15T01:00:12.812Z,24.26
2018-06-15T01:01:12.809Z,24.19
2018-06-15T01:02:12.845Z,24.22
2018-06-15T01:03:12.831Z,24.24
2018-06-15T01:04:12.834Z,24.26
2018-06-15T01:05:12.815Z,24.25
2018-06-15T01:06:12.847Z,24.26
2018-06-15T01:07:12.848Z,24.26
2018-06-15T01:08:12.854Z,24.18
2018-06-15T01:09:12.814Z,24.25
2018-06-15T01:10:12.796Z,24.18
2018-06-15T01:11:12.797Z,24.19
2018-06-15T01:12:12.863Z,24.14
2018-06-15T01:13:12.824Z,24.24
2018-06-15T01:14:12.874Z,24.22
2018-06-15T01:15:12.852Z,24.19
2018-06-15T01:16:12.885Z,24.18
2018-06-15T01:17:12.868Z,24.19
2018-06-15T01:18:12.855Z,24.19
2018-06-15T01:19:12.823Z,24.26
2018-06-15T01:20:12.863Z,24.24
2018-06-15T01:21:12.869Z,24.18
2018-06-15T01:26:29.929Z,24.22
2018-06-15T01:26:41.349Z,24.22
2018-06-15T01:27:41.355Z,24.24
2018-06-15T01:28:41.331Z,24.28
2018-06-15T01:29:41.338Z,24.18
2018-06-15T01:30:41.347Z,24.19
2018-06-15T01:31:41.528Z,24.1
2018-06-15T01:32:41.353Z,24.25
2018-06-15T01:33:41.347Z,24.16
2018-06-15T01:34:41.343Z,24.19
2018-06-15T01:35:41.370Z,24.19
2018-06-15T01:36:41.410Z,24.26
2018-06-15T01:37:41.388Z,24.25
2018-06-15T01:38:41.372Z,24.19
2018-06-15T01:39:41.405Z,24.18
2018-06-15T01:40:41.356Z,24.11
2018-06-15T01:41:41.357Z,24.21
2018-06-15T01:42:41.376Z,24.18
2018-06-15T01:43:41.380Z,24.18
2018-06-15T01:44:41.333Z,24.13
2018-06-15T01:45:41.337Z,24.09
2018-06-15T01:46:41.404Z,24.16
2018-06-15T01:47:41.396Z,24.1
2018-06-15T01:48:41.393Z,24.09
2018-06-15T01:49:41.391Z,24.13
2018-06-15T01:50:41.330Z,24.14
2018-06-15T01:51:41.349Z,24.19
2018-06-15T01:52:41.382Z,24.19
2018-06-15T01:53:41.376Z,24.11
2018-06-15T01:54:41.369Z,24.22
2018-06-15T01:55:41.388Z,24.1
2018-06-15T01:56:41.375Z,24.25
2018-06-15T01:57:41.412Z,24.22
2018-06-15T01:58:41.399Z,24.07
2018-06-15T01:59:41.411Z,24.14
2018-06-15T02:00:41.433Z,24.09
2018-06-15T02:01:41.454Z,24.11
2018-06-15T02:02:41.403Z,24.21
2018-06-15T02:03:41.460Z,24.16
2018-06-15T02:04:41.379Z,24.14
2018-06-15T02:05:41.446Z,24.14
2018-06-15T02:06:41.375Z,24.18
2018-06-15T02:07:41.521Z,24.13
2018-06-15T02:08:41.434Z,24.11
2018-06-15T02:09:41.388Z,24.06
2018-06-15T02:10:41.431Z,24.14
2018-06-15T02:11:41.408Z,24.14
2018-06-15T02:12:41.468Z,24.09
2018-06-15T02:13:41.420Z,24.14
2018-06-15T02:14:41.428Z,24.1
2018-06-15T02:15:41.415Z,24.11
2018-06-15T02:16:41.443Z,24.03
2018-06-15T02:17:41.424Z,24.11
2018-06-15T02:18:41.432Z,24.07
2018-06-15T02:19:41.454Z,24.13
2018-06-15T02:20:41.438Z,24.1
2018-06-15T02:21:41.418Z,24.1
2018-06-15T02:22:41.479Z,24.09
2018-06-15T02:23:41.457Z,24.09
2018-06-15T02:24:41.421Z,24.1
2018-06-15T02:25:41.451Z,24.1
2018-06-15T02:26:41.455Z,23.96
2018-06-15T02:27:41.417Z,24.07
2018-06-15T02:28:41.926Z,24.16
2018-06-15T02:29:41.423Z,24.16
2018-06-15T02:30:41.511Z,24.13
2018-06-15T02:31:41.465Z,24.1
2018-06-15T02:32:41.467Z,24.11
2018-06-15T02:33:41.475Z,24.1
2018-06-15T02:34:41.433Z,24.13
2018-06-15T02:35:41.441Z,24.11
2018-06-15T02:36:41.464Z,24.18
2018-06-15T02:37:41.507Z,24.09
2018-06-15T02:38:41.472Z,24.09
2018-06-15T02:39:41.508Z,24.04
2018-06-15T02:40:41.522Z,24.09
2018-06-15T02:41:41.500Z,24.11
2018-06-15T02:42:41.457Z,24.07
2018-06-15T02:43:42.149Z,24.09
2018-06-15T02:44:41.517Z,24.06
2018-06-15T02:45:41.562Z,24.03
2018-06-15T02:46:41.487Z,24.07
2018-06-15T02:47:41.628Z,24.11
2018-06-15T02:48:41.498Z,24.11
2018-06-15T02:49:41.508Z,24
2018-06-15T02:50:41.478Z,24.09
2018-06-15T02:51:41.463Z,24.04
2018-06-15T02:52:41.503Z,24.09
2018-06-15T02:53:41.551Z,24.07
2018-06-15T02:54:41.470Z,24.07
2018-06-15T02:55:41.520Z,24.16
2018-06-15T02:56:41.504Z,24.14
2018-06-15T02:57:41.504Z,24.06
2018-06-15T02:58:41.535Z,24.13
2018-06-15T02:59:41.485Z,24.07
2018-06-15T03:00:41.516Z,24.13
2018-06-15T03:01:41.530Z,24.13
2018-06-15T03:02:41.533Z,24.07
2018-06-15T03:03:41.490Z,24.04
2018-06-15T03:04:41.558Z,24.11
2018-06-15T03:05:41.600Z,24.13
2018-06-15T03:06:41.563Z,24.09
2018-06-15T03:07:41.590Z,24.09
2018-06-15T03:08:41.572Z,24.06
2018-06-15T03:09:41.528Z,24.09
2018-06-15T03:10:42.350Z,24.14
2018-06-15T03:11:41.514Z,24.09
2018-06-15T03:12:41.572Z,24.11
2018-06-15T03:13:41.500Z,24.06
2018-06-15T03:14:41.568Z,24.07
2018-06-15T03:15:41.595Z,24.07
2018-06-15T03:16:41.523Z,24.04
2018-06-15T03:17:41.579Z,24.07
2018-06-15T03:18:41.530Z,24.19
2018-06-15T03:19:41.579Z,24.1
2018-06-15T03:20:41.579Z,24.1
2018-06-15T03:21:41.559Z,24.11
2018-06-15T03:22:41.562Z,24.07
2018-06-15T03:23:41.595Z,24.11
2018-06-15T03:24:41.622Z,24.07
2018-06-15T03:25:41.582Z,24.1
2018-06-15T03:26:41.571Z,24.11
2018-06-15T03:27:41.564Z,24.09
2018-06-15T03:28:41.551Z,24.06
2018-06-15T03:29:41.616Z,24.13
2018-06-15T03:30:41.560Z,24.07
2018-06-15T03:31:41.571Z,24.07
2018-06-15T03:32:41.606Z,24.04
2018-06-15T03:33:41.558Z,24.1
2018-06-15T03:34:41.590Z,24.11
2018-06-15T03:35:41.583Z,24.09
2018-06-15T03:36:41.544Z,24.07
2018-06-15T03:37:41.655Z,24.07
2018-06-15T03:38:41.569Z,24.04
2018-06-15T03:39:41.618Z,24.1
2018-06-15T03:40:41.552Z,24.1
2018-06-15T03:41:41.612Z,24.11
2018-06-15T03:42:41.669Z,24.07
2018-06-15T03:43:41.576Z,24.13
2018-06-15T03:44:41.581Z,24.06
2018-06-15T03:45:41.640Z,24.1
2018-06-15T03:46:41.596Z,24.11
2018-06-15T03:47:41.652Z,24.07
2018-06-15T03:48:41.683Z,24.09
2018-06-15T03:49:42.153Z,24.03
2018-06-15T03:50:41.569Z,24.1
2018-06-15T03:51:41.623Z,24.1
2018-06-15T03:52:41.607Z,24.1
2018-06-15T03:53:41.604Z,24.09
2018-06-15T03:54:41.614Z,24.09
2018-06-15T03:55:41.602Z,24.11
2018-06-15T03:56:41.602Z,24.13
2018-06-15T03:57:41.662Z,24.11
2018-06-15T03:58:41.616Z,24.07
2018-06-15T03:59:41.618Z,24.11
2018-06-15T04:00:41.635Z,24.16
2018-06-15T04:01:42.206Z,24.09
2018-06-15T04:02:42.313Z,24.04
2018-06-15T04:03:41.638Z,24.09
2018-06-15T04:04:41.657Z,24.13
2018-06-15T04:05:41.667Z,24.14
2018-06-15T04:06:42.308Z,24.09
2018-06-15T04:07:41.786Z,24.03
2018-06-15T04:08:41.608Z,24.09
2018-06-15T04:09:41.636Z,24.01
2018-06-15T04:10:41.667Z,24.1
2018-06-15T04:11:41.699Z,24.09
2018-06-15T04:12:41.633Z,24.07
2018-06-15T04:13:41.712Z,24.09
2018-06-15T04:14:41.615Z,24.07
2018-06-15T04:15:41.624Z,24.07
2018-06-15T04:16:41.637Z,24.11
2018-06-15T04:17:41.692Z,24.06
2018-06-15T04:18:41.778Z,24.07
2018-06-15T04:19:41.666Z,23.99
2018-06-15T04:20:41.689Z,24.03
2018-06-15T04:21:41.662Z,24
2018-06-15T04:22:41.729Z,24.03
2018-06-15T04:23:41.633Z,24.03
2018-06-15T04:24:41.655Z,24.03
2018-06-15T04:25:41.635Z,24.04
2018-06-15T04:26:41.624Z,24.13
2018-06-15T04:27:41.725Z,24.07
2018-06-15T04:28:41.720Z,24.04
2018-06-15T04:29:41.661Z,24.06
2018-06-15T04:30:41.726Z,24.01
2018-06-15T04:31:41.736Z,24.06
2018-06-15T04:32:41.711Z,24.16
2018-06-15T04:33:41.711Z,24.1
2018-06-15T04:34:41.653Z,24.04
2018-06-15T04:35:41.704Z,24.06
2018-06-15T04:36:41.690Z,24.13
2018-06-15T04:37:41.747Z,24.04
2018-06-15T04:38:41.688Z,24.06
2018-06-15T04:39:41.729Z,24.09
2018-06-15T04:40:41.684Z,24.07
2018-06-15T04:41:41.718Z,24.11
2018-06-15T04:42:41.680Z,24.11
2018-06-15T04:43:41.737Z,24.14
2018-06-15T04:44:41.716Z,24.11
2018-06-15T04:45:41.661Z,24.07
2018-06-15T04:46:41.705Z,24.11
2018-06-15T04:47:41.727Z,24.21
2018-06-15T04:48:41.818Z,24.04
2018-06-15T04:49:41.697Z,24.1
2018-06-15T04:50:41.678Z,24.06
2018-06-15T04:51:41.829Z,24.09
2018-06-15T04:52:41.725Z,24.11
2018-06-15T04:53:41.718Z,24.1
2018-06-15T04:54:41.731Z,24.1
2018-06-15T04:55:41.709Z,24.1
2018-06-15T04:56:41.715Z,24.09
2018-06-15T04:57:41.753Z,24.09
2018-06-15T04:58:41.774Z,24.03
2018-06-15T04:59:41.680Z,24.1
2018-06-15T05:00:41.735Z,24.13
2018-06-15T05:01:41.719Z,24.11
2018-06-15T05:02:41.708Z,24.04
2018-06-15T05:03:41.950Z,24.07
2018-06-15T05:04:41.839Z,24.1
2018-06-15T05:05:41.723Z,24.11
2018-06-15T05:06:41.801Z,24.14
2018-06-15T05:07:41.842Z,24.06
2018-06-15T05:08:41.732Z,24.09
2018-06-15T05:09:41.831Z,24.1
2018-06-15T05:10:41.757Z,24.09
2018-06-15T05:11:41.741Z,24.1
2018-06-15T05:12:41.826Z,24.09
2018-06-15T05:13:41.742Z,24.16
2018-06-15T05:14:41.733Z,24.04
2018-06-15T05:15:41.726Z,24.11
2018-06-15T05:16:42.758Z,24.14
2018-06-15T05:17:41.715Z,24.07
2018-06-15T05:18:41.838Z,24.04
2018-06-15T05:19:41.769Z,24.07
2018-06-15T05:20:41.771Z,24.18
2018-06-15T05:21:41.740Z,24.14
2018-06-15T05:22:41.787Z,24.19
2018-06-15T05:23:41.844Z,24.06
2018-06-15T05:24:41.825Z,24.1
2018-06-15T05:25:41.809Z,24.09
2018-06-15T05:26:42.799Z,24.1
2018-06-15T05:27:41.734Z,24.1
2018-06-15T05:28:41.813Z,24.09
2018-06-15T05:29:41.783Z,24.1
2018-06-15T05:30:41.780Z,24.22
2018-06-15T05:31:41.767Z,24.11
2018-06-15T05:32:41.660Z,24.09
2018-06-15T05:33:41.671Z,24.19
2018-06-15T05:34:41.677Z,24.24
2018-06-15T05:35:41.873Z,24.19
2018-06-15T05:36:41.643Z,24.1
2018-06-15T05:37:41.670Z,24.11
2018-06-15T05:38:41.750Z,24.25
2018-06-15T05:39:41.676Z,24.16
2018-06-15T05:40:41.690Z,24.19
2018-06-15T05:41:41.751Z,24.11
2018-06-15T05:42:41.794Z,24.21
2018-06-15T05:43:41.640Z,24.25
2018-06-15T05:44:41.728Z,24.14
2018-06-15T05:45:41.689Z,24.25
2018-06-15T05:46:41.913Z,24.22
2018-06-15T05:47:41.763Z,24.1
2018-06-15T05:48:41.660Z,24.25
2018-06-15T05:49:41.698Z,24.21
2018-06-15T05:50:41.724Z,24.16
2018-06-15T05:51:41.711Z,24.22
2018-06-15T05:52:41.768Z,24.25
2018-06-15T05:53:41.701Z,24.11
2018-06-15T05:54:41.744Z,24.11
2018-06-15T05:55:41.699Z,24.18
2018-06-15T05:56:41.735Z,24.22
2018-06-15T05:57:41.785Z,24.11
2018-06-15T05:58:41.745Z,24.1
2018-06-15T05:59:41.697Z,24.16
2018-06-15T06:00:41.844Z,24.18
2018-06-15T06:01:41.852Z,24.13
2018-06-15T06:02:41.815Z,24.16
2018-06-15T06:03:41.935Z,24.14
2018-06-15T06:04:41.853Z,24.14
2018-06-15T06:05:41.844Z,24.18
2018-06-15T06:06:41.828Z,24.13
2018-06-15T06:07:41.876Z,24.1
2018-06-15T06:08:41.950Z,24.13
2018-06-15T06:09:41.858Z,24.06
2018-06-15T06:10:41.865Z,24.13
2018-06-15T06:11:41.915Z,24.09
2018-06-15T06:12:41.881Z,24.09
2018-06-15T06:13:41.873Z,24.16
2018-06-15T06:14:41.883Z,24.13
2018-06-15T06:15:41.876Z,24.07
2018-06-15T06:16:41.852Z,24.06
2018-06-15T06:17:41.839Z,24.03
2018-06-15T06:18:41.860Z,24.04
2018-06-15T06:19:41.936Z,24.01
2018-06-15T06:20:41.951Z,24.07
2018-06-15T06:21:41.910Z,24.1
2018-06-15T06:22:41.866Z,24.06
2018-06-15T06:23:41.844Z,24.14
2018-06-15T06:24:41.896Z,24.04
2018-06-15T06:25:41.882Z,24.04
2018-06-15T06:26:41.858Z,24.07
2018-06-15T06:27:41.862Z,24.13
2018-06-15T06:28:41.905Z,24.16
2018-06-15T06:29:41.895Z,24.06
2018-06-15T06:30:41.913Z,24.09
2018-06-15T06:31:41.902Z,24.09
2018-06-15T06:32:42.039Z,24.06
2018-06-15T06:33:41.887Z,24.09
2018-06-15T06:34:41.868Z,24.04
2018-06-15T06:35:41.872Z,24.07
2018-06-15T06:36:41.856Z,24.13
2018-06-15T06:37:41.930Z,24.1
2018-06-15T06:38:41.925Z,24.09
2018-06-15T06:39:41.872Z,24.06
2018-06-15T06:40:41.957Z,24.09
2018-06-15T06:41:41.934Z,24.09
2018-06-15T06:42:41.937Z,24.09
2018-06-15T06:43:41.900Z,24.11
2018-06-15T06:44:41.962Z,24.04
2018-06-15T06:45:41.887Z,24.1
2018-06-15T06:46:41.952Z,24.03
2018-06-15T06:47:41.918Z,24.13
2018-06-15T06:48:41.955Z,24.14
2018-06-15T06:49:41.938Z,24.16
2018-06-15T06:50:41.969Z,24.03
2018-06-15T06:51:41.952Z,24.04
2018-06-15T06:56:10.295Z,24.07
2018-06-15T06:57:10.292Z,24.09
2018-06-15T06:58:10.328Z,24.07
2018-06-15T06:59:10.312Z,24.16
2018-06-15T07:00:10.317Z,24.09
2018-06-15T07:01:10.607Z,24.09
2018-06-15T07:02:10.429Z,24.14
2018-06-15T07:03:10.388Z,24.09
2018-06-15T07:04:10.348Z,24.03
2018-06-15T07:05:10.302Z,24.09
2018-06-15T07:06:10.311Z,24.11
2018-06-15T07:07:10.288Z,24.16
2018-06-15T07:08:10.336Z,24.09
2018-06-15T07:09:10.303Z,24.04
2018-06-15T07:10:10.379Z,24.07
2018-06-15T07:11:10.340Z,24.13
2018-06-15T07:12:10.324Z,24.09
2018-06-15T07:13:10.359Z,24.1
2018-06-15T07:14:10.326Z,24.03
2018-06-15T07:15:10.367Z,24.13
2018-06-15T07:16:10.401Z,24.1
2018-06-15T07:17:10.330Z,24.07
2018-06-15T07:18:10.312Z,24.04
2018-06-15T07:19:10.368Z,24.03
2018-06-15T07:20:10.345Z,24.1
2018-06-15T07:21:10.317Z,24.09
2018-06-15T07:22:10.351Z,24.06
2018-06-15T07:23:10.339Z,24.04
2018-06-15T07:24:10.347Z,24.13
2018-06-15T07:25:10.344Z,24.11
2018-06-15T07:26:10.405Z,24.09
2018-06-15T07:27:10.383Z,24.07
2018-06-15T07:28:10.322Z,24.09
2018-06-15T07:29:10.349Z,24.07
2018-06-15T07:30:10.369Z,24.09
2018-06-15T07:31:10.315Z,24.1
2018-06-15T07:32:10.418Z,24.04
2018-06-15T07:33:10.343Z,24.11
2018-06-15T07:34:10.312Z,24.14
2018-06-15T07:35:10.362Z,24.07
2018-06-15T07:36:10.398Z,24.04
2018-06-15T07:37:10.383Z,24.06
2018-06-15T07:38:10.343Z,24.04
2018-06-15T07:39:10.347Z,24.1
2018-06-15T07:40:10.341Z,24.1
2018-06-15T07:41:10.320Z,24.1
2018-06-15T07:42:26.415Z,24.1
2018-06-15T07:43:26.467Z,24.07
2018-06-15T07:44:26.401Z,24.13
2018-06-15T07:45:26.387Z,24.06
2018-06-15T07:46:27.350Z,24.13
2018-06-15T07:47:26.410Z,24.09
2018-06-15T07:48:26.426Z,24.07
2018-06-15T07:49:26.405Z,24.06
2018-06-15T07:50:26.406Z,24.1
2018-06-15T07:51:26.410Z,24.11
2018-06-15T07:52:26.492Z,24.04
2018-06-15T07:53:26.418Z,24.09
2018-06-15T07:54:26.430Z,24.06
2018-06-15T07:55:26.428Z,24.1
2018-06-15T07:56:26.587Z,24.06
2018-06-15T07:57:26.556Z,24.09
2018-06-15T07:58:26.511Z,24.09
2018-06-15T07:59:26.569Z,24.06
2018-06-15T08:00:26.447Z,24.04
2018-06-15T08:01:26.422Z,24.04
2018-06-15T08:02:26.404Z,24.1
2018-06-15T08:03:26.423Z,24.1
2018-06-15T08:04:26.447Z,24.11
2018-06-15T08:05:26.431Z,24.09
2018-06-15T08:06:29.591Z,24.06
2018-06-15T08:07:26.415Z,24.07
2018-06-15T08:08:26.404Z,24.11
2018-06-15T08:09:26.480Z,24.11
2018-06-15T08:10:26.432Z,24.04
2018-06-15T08:11:26.451Z,24.04
2018-06-15T08:12:26.450Z,24.03
2018-06-15T08:13:26.426Z,24.04
2018-06-15T08:14:26.436Z,24.07
2018-06-15T08:15:26.439Z,24.07
2018-06-15T08:16:26.398Z,24.1
2018-06-15T08:17:26.455Z,24.09
2018-06-15T08:18:26.446Z,24.04
2018-06-15T08:19:26.446Z,24.11
2018-06-15T08:20:26.472Z,24.19
2018-06-15T08:21:26.480Z,24.13
2018-06-15T08:22:26.432Z,24.11
2018-06-15T08:23:26.494Z,24.11
2018-06-15T08:24:26.481Z,24.07
2018-06-15T08:25:26.478Z,24.04
2018-06-15T08:26:26.463Z,24.09
2018-06-15T08:27:26.466Z,24.1
2018-06-15T08:28:26.478Z,23.96
2018-06-15T08:29:26.532Z,24.04
2018-06-15T08:30:26.508Z,24.03
2018-06-15T08:31:26.503Z,23.96
2018-06-15T08:32:26.428Z,24.03
2018-06-15T08:37:43.721Z,23.96
2018-06-15T08:37:55.178Z,23.99
2018-06-15T08:38:55.192Z,24.03
2018-06-15T08:39:55.113Z,24.01
2018-06-15T08:40:55.147Z,23.99
2018-06-15T08:41:55.159Z,24.06
2018-06-15T08:42:55.155Z,24.01
2018-06-15T08:43:55.191Z,24.03
2018-06-15T08:44:55.205Z,24.13
2018-06-15T08:45:55.154Z,24.01
2018-06-15T08:46:55.227Z,24.01
2018-06-15T08:47:55.198Z,24.06
2018-06-15T08:48:55.186Z,24.01
2018-06-15T08:49:55.201Z,24.03
2018-06-15T08:50:55.184Z,23.95
2018-06-15T08:51:55.192Z,24.09
2018-06-15T08:52:55.284Z,24
2018-06-15T08:53:55.160Z,23.95
2018-06-15T08:54:55.212Z,24.01
2018-06-15T08:55:55.216Z,23.99
2018-06-15T08:56:55.247Z,24.04
2018-06-15T08:57:55.209Z,23.99
2018-06-15T08:58:55.192Z,24.04
2018-06-15T08:59:55.219Z,23.95
2018-06-15T09:00:55.224Z,23.95
2018-06-15T09:01:55.281Z,23.96
2018-06-15T09:02:55.330Z,24.03
2018-06-15T09:03:55.192Z,24.01
2018-06-15T09:04:55.226Z,24.03
2018-06-15T09:05:55.206Z,23.99
2018-06-15T09:06:55.225Z,24.03
2018-06-15T09:07:55.247Z,23.99
2018-06-15T09:08:55.205Z,24.03
2018-06-15T09:09:55.233Z,24.04
2018-06-15T09:10:55.888Z,24
2018-06-15T09:11:55.232Z,23.96
2018-06-15T09:12:55.228Z,24.04
2018-06-15T09:13:55.238Z,24
2018-06-15T09:14:55.195Z,24.03
2018-06-15T09:15:55.251Z,24.04
2018-06-15T09:16:55.283Z,24.06
2018-06-15T09:17:57.930Z,24.04
2018-06-15T09:18:55.243Z,24.01
2018-06-15T09:19:55.233Z,24.01
2018-06-15T09:20:55.318Z,24.01
2018-06-15T09:21:55.235Z,24.09
2018-06-15T09:22:55.243Z,24.04
2018-06-15T09:23:55.223Z,24.03
2018-06-15T09:24:55.231Z,23.95
2018-06-15T09:25:55.239Z,23.99
2018-06-15T09:26:55.241Z,24.1
2018-06-15T09:27:55.255Z,24.06
2018-06-15T09:28:55.258Z,24.04
2018-06-15T09:29:55.262Z,24.11
2018-06-15T09:30:55.325Z,24.06
2018-06-15T09:31:55.282Z,24.01
2018-06-15T09:32:55.264Z,24.01
2018-06-15T09:33:55.300Z,23.99
2018-06-15T09:34:55.256Z,24
2018-06-15T09:35:55.272Z,24.03
2018-06-15T09:36:55.258Z,24.06
2018-06-15T09:37:55.351Z,23.94
2018-06-15T09:38:55.379Z,23.95
2018-06-15T09:39:55.325Z,24
2018-06-15T09:40:55.311Z,24.03
2018-06-15T09:41:56.547Z,24.01
2018-06-15T09:42:55.287Z,24.06
2018-06-15T09:43:55.274Z,24.07
2018-06-15T09:44:55.289Z,24.03
2018-06-15T09:45:55.295Z,24.03
2018-06-15T09:46:55.264Z,24.04
2018-06-15T09:47:55.274Z,24.06
2018-06-15T09:48:55.282Z,24.01
2018-06-15T09:49:55.324Z,24
2018-06-15T09:50:55.267Z,24.01
2018-06-15T09:51:55.289Z,24.03
2018-06-15T09:52:55.380Z,23.96
2018-06-15T09:53:55.429Z,23.99
2018-06-15T09:54:55.292Z,24.01
2018-06-15T09:55:55.299Z,24.04
2018-06-15T09:56:55.261Z,24.03
2018-06-15T09:57:55.325Z,24
2018-06-15T09:58:55.394Z,24.04
2018-06-15T09:59:55.361Z,24.1
2018-06-15T10:00:55.315Z,24.13
2018-06-15T10:01:55.260Z,24.03
2018-06-15T10:02:55.341Z,24.07
2018-06-15T10:03:55.330Z,24.13
2018-06-15T10:04:55.289Z,24.11
2018-06-15T10:05:55.315Z,24.14
2018-06-15T10:06:55.298Z,24.14
2018-06-15T10:07:55.331Z,24.04
2018-06-15T10:08:55.281Z,24.14
2018-06-15T10:09:55.312Z,24.06
2018-06-15T10:10:55.350Z,24.1
2018-06-15T10:11:55.370Z,24.06
2018-06-15T10:12:55.314Z,24.09
2018-06-15T10:13:55.957Z,24.03
2018-06-15T10:14:55.335Z,24.01
2018-06-15T10:15:55.380Z,24
2018-06-15T10:16:55.960Z,24.01
2018-06-15T10:17:55.324Z,24.01
2018-06-15T10:18:55.324Z,24.03
2018-06-15T10:19:55.307Z,24.01
2018-06-15T10:20:55.374Z,24.04
2018-06-15T10:21:55.375Z,24
2018-06-15T10:22:55.352Z,24.07
2018-06-15T10:23:55.337Z,24.04
2018-06-15T10:24:55.473Z,24.03
2018-06-15T10:25:55.426Z,24.09
2018-06-15T10:26:55.384Z,24.06
2018-06-15T10:27:55.447Z,24.01
2018-06-15T10:28:56.224Z,24.16
2018-06-15T10:29:55.357Z,24.09
2018-06-15T10:30:55.353Z,24.07
2018-06-15T10:31:55.356Z,24.18
2018-06-15T10:32:55.563Z,24.11
2018-06-15T10:33:55.405Z,24.07
2018-06-15T10:34:55.383Z,24.03
2018-06-15T10:35:55.356Z,24.1
2018-06-15T10:36:55.501Z,24.07
2018-06-15T10:37:55.425Z,24.16
2018-06-15T10:38:55.405Z,24.09
2018-06-15T10:39:55.386Z,24.04
2018-06-15T10:40:55.412Z,24.13
2018-06-15T10:41:55.352Z,24.04
2018-06-15T10:42:55.399Z,24.04
2018-06-15T10:43:55.390Z,24.07
2018-06-15T10:44:55.335Z,24.04
2018-06-15T10:45:55.375Z,24.09
2018-06-15T10:46:55.407Z,24.16
2018-06-15T10:47:55.388Z,24.13
2018-06-15T10:48:55.394Z,24.14
2018-06-15T10:49:55.447Z,24.11
2018-06-15T10:50:55.428Z,24.1
2018-06-15T10:51:55.416Z,24.06
2018-06-15T10:52:55.452Z,24.1
2018-06-15T10:53:55.450Z,24.13
2018-06-15T10:54:55.532Z,24.03
2018-06-15T10:55:55.369Z,24.1
2018-06-15T10:56:55.414Z,24.09
2018-06-15T10:57:55.422Z,24.18
2018-06-15T10:58:55.379Z,24.07
2018-06-15T10:59:55.446Z,24.11
2018-06-15T11:00:55.419Z,24.11
2018-06-15T11:01:55.476Z,24.07
2018-06-15T11:02:55.390Z,24.03
2018-06-15T11:03:55.439Z,24.11
2018-06-15T11:04:55.392Z,24.06
2018-06-15T11:05:55.480Z,24.09
2018-06-15T11:06:55.431Z,24.1
2018-06-15T11:07:55.436Z,24.11
2018-06-15T11:08:55.481Z,24.1
2018-06-15T11:09:55.437Z,24.09
2018-06-15T11:10:55.411Z,24.14
2018-06-15T11:11:55.445Z,24.16
2018-06-15T11:12:55.422Z,24.13
2018-06-15T11:13:55.484Z,24.14
2018-06-15T11:14:55.436Z,24.1
2018-06-15T11:15:55.420Z,24.14
2018-06-15T11:16:55.399Z,24.16
2018-06-15T11:17:55.458Z,24.13
2018-06-15T11:18:55.496Z,24.18
2018-06-15T11:19:55.589Z,24.14
2018-06-15T11:20:55.443Z,24.14
2018-06-15T11:21:55.479Z,24.22
2018-06-15T11:22:55.439Z,24.21
2018-06-15T11:23:55.441Z,24.21
2018-06-15T11:24:55.503Z,24.11
2018-06-15T11:25:55.484Z,24.09
2018-06-15T11:26:55.437Z,24.13
2018-06-15T11:27:55.472Z,24.21
2018-06-15T11:28:55.459Z,24.18
2018-06-15T11:29:55.458Z,24.09
2018-06-15T11:30:55.589Z,24.09
2018-06-15T11:31:55.415Z,24.16
2018-06-15T11:32:55.446Z,24.19
2018-06-15T11:33:55.433Z,24.07
2018-06-15T11:34:55.492Z,24.03
2018-06-15T11:35:55.472Z,24.09
2018-06-15T11:36:55.453Z,24.04
2018-06-15T11:37:55.488Z,24.11
2018-06-15T11:38:55.536Z,24.07
2018-06-15T11:43:24.519Z,24.07
2018-06-15T11:44:24.602Z,24.1
2018-06-15T11:45:24.484Z,24.03
2018-06-15T11:46:24.488Z,24.06
2018-06-15T11:47:24.475Z,24.11
2018-06-15T11:48:24.631Z,24.13
2018-06-15T11:49:24.512Z,24.09
2018-06-15T11:50:24.515Z,24.09
2018-06-15T11:51:24.503Z,24.13
2018-06-15T11:52:25.170Z,24.14
2018-06-15T11:53:24.458Z,24.07
2018-06-15T11:54:24.492Z,24.07
2018-06-15T11:55:24.472Z,24.1
2018-06-15T11:56:24.536Z,24.11
2018-06-15T11:57:24.520Z,24.1
2018-06-15T11:58:24.547Z,24.07
2018-06-15T11:59:24.611Z,24.07
2018-06-15T12:00:24.614Z,24.06
2018-06-15T12:01:24.542Z,24.06
2018-06-15T12:02:24.519Z,24.13
2018-06-15T12:03:24.492Z,24.06
2018-06-15T12:04:24.529Z,24.11
2018-06-15T12:05:24.530Z,24.07
2018-06-15T12:06:24.494Z,24.11
2018-06-15T12:07:24.495Z,24.09
2018-06-15T12:08:24.524Z,24.07
2018-06-15T12:09:24.533Z,24.13
2018-06-15T12:10:24.616Z,24.14
2018-06-15T12:11:24.527Z,24.11
2018-06-15T12:12:24.507Z,24.18
2018-06-15T12:13:24.541Z,24.13
2018-06-15T12:14:24.548Z,24.11
2018-06-15T12:15:24.534Z,24.09
2018-06-15T12:16:24.561Z,24.09
2018-06-15T12:17:24.543Z,24.1
2018-06-15T12:18:24.521Z,24.06
2018-06-15T12:19:24.558Z,24.13
2018-06-15T12:20:24.564Z,24.11
2018-06-15T12:21:24.545Z,24.11
2018-06-15T12:22:24.566Z,24.09
2018-06-15T12:23:24.579Z,24.09
2018-06-15T12:24:24.502Z,24.1
2018-06-15T12:25:24.570Z,24.04
2018-06-15T12:26:24.564Z,24.06
2018-06-15T12:27:24.625Z,24.1
2018-06-15T12:28:24.555Z,24.01
2018-06-15T12:29:24.583Z,24.09
2018-06-15T12:30:24.539Z,24.06
2018-06-15T12:31:24.552Z,24.09
2018-06-15T12:32:24.513Z,24.06
2018-06-15T12:33:24.514Z,24.1
2018-06-15T12:34:24.649Z,24.1
2018-06-15T12:35:24.548Z,24.19
2018-06-15T12:36:24.656Z,24.13
2018-06-15T12:39:31.759Z,24.13
2018-06-15T12:39:43.197Z,24.11
2018-06-15T12:40:43.247Z,24.18
2018-06-15T12:41:43.201Z,24.07
2018-06-15T12:42:43.254Z,24.09
2018-06-15T12:43:43.212Z,24.16
2018-06-15T12:44:43.192Z,24.13
2018-06-15T12:45:43.319Z,24.11
2018-06-15T12:46:43.233Z,24.07
2018-06-15T12:47:43.214Z,24.09
2018-06-15T12:48:43.275Z,24.06
2018-06-15T12:49:43.240Z,24.13
2018-06-15T12:50:43.238Z,24.09
2018-06-15T12:51:43.224Z,24.13
2018-06-15T12:52:43.355Z,24.14
2018-06-15T12:53:43.285Z,24.09
2018-06-15T12:54:43.274Z,24.14
2018-06-15T12:55:43.272Z,24.1
2018-06-15T12:56:43.306Z,24.14
2018-06-15T12:57:43.256Z,24.11
2018-06-15T12:58:43.281Z,24.09
2018-06-15T12:59:43.252Z,24.11
2018-06-15T13:00:43.278Z,24.1
2018-06-15T13:01:43.253Z,24.13
2018-06-15T13:02:44.804Z,24.1
2018-06-15T13:03:43.265Z,24.04
2018-06-15T13:04:45.143Z,24.09
2018-06-15T13:05:43.250Z,24.1
2018-06-15T13:06:43.313Z,24.04
2018-06-15T13:07:43.212Z,24.09
2018-06-15T13:08:44.081Z,24.09
2018-06-15T13:09:43.584Z,24.1
2018-06-15T13:10:43.267Z,24.13
2018-06-15T13:11:43.276Z,24.1